Time;durP1;ratioP1;P1;durP2;ratioP2;P2;SDS_P1;SDS_P2;PMS_P1;PMS_P2;Temp;Humidity;BMP_temperature;BMP_pressure;BME280_temperature;BME280_humidity;BME280_pressure;Samples;Min_cycle;Max_cycle;Signal;HPM_P1;HPM_P2
2023/07/30 00:00:36;;;;;;;4.40;3.47;;;;;;;17.49;100.00;99909.63;4982260;28;20219;-68
2023/07/30 00:03:02;;;;;;;4.97;2.90;;;;;;;17.43;100.00;99912.44;4979460;28;20225;-68
2023/07/30 00:05:29;;;;;;;5.40;3.10;;;;;;;17.38;100.00;99914.34;4984318;28;20299;-68
2023/07/30 00:07:55;;;;;;;3.43;3.13;;;;;;;17.40;100.00;99908.94;4981942;28;20237;-68
2023/07/30 00:10:22;;;;;;;3.70;3.13;;;;;;;17.36;100.00;99907.25;4982474;28;20206;-68
2023/07/30 00:12:48;;;;;;;4.97;3.33;;;;;;;17.29;100.00;99911.88;4975082;28;20201;-68
2023/07/30 00:15:17;;;;;;;3.30;3.00;;;;;;;17.23;100.00;99915.56;4986232;28;20212;-68
2023/07/30 00:17:43;;;;;;;3.63;3.03;;;;;;;17.20;100.00;99910.25;4988867;28;20734;-68
2023/07/30 00:20:10;;;;;;;2.93;2.63;;;;;;;17.36;100.00;99921.53;4987902;28;20212;-69
2023/07/30 00:22:36;;;;;;;3.63;2.80;;;;;;;17.41;100.00;99916.94;4988787;28;20300;-69
2023/07/30 00:25:03;;;;;;;3.47;2.80;;;;;;;17.40;100.00;99917.88;4988640;28;20220;-69
2023/07/30 00:27:30;;;;;;;4.67;2.73;;;;;;;17.57;100.00;99921.94;4988011;28;20263;-68
2023/07/30 00:29:56;;;;;;;3.43;2.90;;;;;;;17.66;100.00;99925.31;4985479;28;20206;-68
2023/07/30 00:32:22;;;;;;;5.97;2.93;;;;;;;17.74;100.00;99923.38;4988958;28;20231;-68
2023/07/30 00:34:49;;;;;;;4.30;2.90;;;;;;;17.71;100.00;99931.50;4991404;28;20247;-68
2023/07/30 00:37:15;;;;;;;3.03;2.70;;;;;;;17.72;100.00;99935.03;4988139;28;20289;-68
2023/07/30 00:39:42;;;;;;;3.53;2.67;;;;;;;17.73;100.00;99926.09;4989331;28;20204;-68
2023/07/30 00:42:08;;;;;;;3.93;2.90;;;;;;;17.82;100.00;99928.56;4989077;28;20205;-69
2023/07/30 00:44:34;;;;;;;4.10;2.73;;;;;;;17.88;100.00;99932.88;4983414;28;20221;-69
2023/07/30 00:47:01;;;;;;;2.60;2.40;;;;;;;17.84;100.00;99937.44;4978008;28;20201;-68
2023/07/30 00:49:27;;;;;;;3.17;2.50;;;;;;;17.81;100.00;99930.34;4984356;28;20256;-69
2023/07/30 00:51:56;;;;;;;3.00;2.53;;;;;;;17.88;100.00;99933.75;4979948;28;20207;-68
2023/07/30 00:54:24;;;;;;;4.47;2.90;;;;;;;17.95;100.00;99930.00;4986263;28;20256;-69
2023/07/30 00:56:52;;;;;;;4.07;2.50;;;;;;;17.93;100.00;99937.19;4984364;28;20291;-68
2023/07/30 00:59:20;;;;;;;5.60;2.60;;;;;;;17.92;100.00;99942.59;4982324;28;20311;-68
2023/07/30 01:01:47;;;;;;;3.00;2.70;;;;;;;18.02;100.00;99941.50;4977006;28;20201;-68
2023/07/30 01:04:15;;;;;;;6.53;2.50;;;;;;;17.99;100.00;99946.88;4980480;28;20929;-68
2023/07/30 01:06:42;;;;;;;2.93;2.57;;;;;;;17.96;100.00;99938.94;4975846;28;20288;-68
2023/07/30 01:09:09;;;;;;;2.70;2.30;;;;;;;17.99;100.00;99942.41;4982166;28;20739;-68
2023/07/30 01:11:38;;;;;;;3.23;2.63;;;;;;;18.02;100.00;99947.72;4974931;28;20213;-68
2023/07/30 01:14:06;;;;;;;3.93;2.33;;;;;;;17.96;100.00;99949.66;4979592;28;20197;-69
2023/07/30 01:16:32;;;;;;;4.07;3.00;;;;;;;17.95;100.00;99946.09;4980294;28;20288;-69
2023/07/30 01:19:01;;;;;;;3.70;2.43;;;;;;;17.95;100.00;99953.25;4985802;28;20220;-69
2023/07/30 01:21:27;;;;;;;3.97;2.60;;;;;;;18.02;100.00;99955.78;4985942;28;20228;-68
2023/07/30 01:23:53;;;;;;;3.00;2.70;;;;;;;18.02;100.00;99961.13;4976253;28;20221;-69
2023/07/30 01:26:24;;;;;;;2.97;2.67;;;;;;;18.06;100.00;99967.28;4975589;28;20288;-69
2023/07/30 01:28:54;;;;;;;4.27;2.50;;;;;;;18.22;100.00;99962.44;4980439;28;20274;-68
2023/07/30 01:31:24;;;;;;;5.27;2.40;;;;;;;18.26;100.00;99954.28;4981874;28;20213;-68
2023/07/30 01:33:54;;;;;;;3.60;2.70;;;;;;;18.26;100.00;99964.13;4977618;28;20201;-69
2023/07/30 01:36:21;;;;;;;3.17;2.80;;;;;;;18.26;100.00;99969.47;4975806;28;20211;-68
2023/07/30 01:38:52;;;;;;;4.77;2.70;;;;;;;18.23;100.00;99964.19;4986322;28;20225;-68
2023/07/30 01:41:19;;;;;;;3.47;2.40;;;;;;;18.18;100.00;99977.72;4984668;28;20296;-68
2023/07/30 01:43:45;;;;;;;4.03;2.70;;;;;;;18.15;100.00;99975.09;4993336;28;20216;-68
2023/07/30 01:46:12;;;;;;;3.87;2.20;;;;;;;18.14;100.00;99976.03;4988999;28;20200;-68
2023/07/30 01:48:38;;;;;;;3.13;2.50;;;;;;;18.12;100.00;99986.78;4987674;28;20224;-68
2023/07/30 01:51:04;;;;;;;3.03;2.40;;;;;;;18.21;100.00;99982.13;4990636;28;20402;-68
2023/07/30 01:53:31;;;;;;;4.37;2.50;;;;;;;18.20;100.00;99980.34;4991460;28;20194;-68
2023/07/30 01:55:57;;;;;;;3.20;2.50;;;;;;;18.25;100.00;99976.63;4990735;28;20205;-68
2023/07/30 01:58:24;;;;;;;4.47;2.60;;;;;;;18.19;100.00;99979.47;4992875;28;20445;-68
2023/07/30 02:00:50;;;;;;;4.40;2.40;;;;;;;18.25;100.00;99983.78;4990498;28;20212;-68
2023/07/30 02:03:16;;;;;;;3.77;2.30;;;;;;;18.25;100.00;99997.19;4992971;28;20216;-69
2023/07/30 02:05:43;;;;;;;2.80;2.17;;;;;;;18.27;100.00;99990.00;4991116;28;20688;-69
2023/07/30 02:08:09;;;;;;;2.77;2.20;;;;;;;18.27;100.00;99990.88;4990039;28;20242;-69
2023/07/30 02:10:36;;;;;;;2.50;2.10;;;;;;;18.25;100.00;100002.56;4987401;28;20208;-69
2023/07/30 02:13:02;;;;;;;3.50;2.33;;;;;;;18.19;100.00;99997.34;4981382;28;20255;-69
2023/07/30 02:15:29;;;;;;;4.53;2.07;;;;;;;18.17;100.00;99990.22;4980732;28;20267;-68
2023/07/30 02:17:55;;;;;;;4.97;2.30;;;;;;;18.14;100.00;99994.78;4980647;28;20220;-69
2023/07/30 02:20:22;;;;;;;2.67;2.10;;;;;;;18.17;100.00;99997.38;4989433;28;20672;-69
2023/07/30 02:22:49;;;;;;;3.07;2.10;;;;;;;18.14;100.00;100001.03;4984143;28;20648;-69
2023/07/30 02:25:15;;;;;;;2.20;1.70;;;;;;;18.12;100.00;100005.53;4986041;28;20468;-69
2023/07/30 02:27:41;;;;;;;2.13;1.80;;;;;;;18.14;100.00;100010.88;4982563;28;20226;-68
2023/07/30 02:30:08;;;;;;;2.55;2.13;;;;;;;18.17;100.00;100006.31;4981026;28;20212;-68
2023/07/30 02:32:35;;;;;;;4.80;2.07;;;;;;;18.14;100.00;100003.72;4980795;28;20292;-68
2023/07/30 02:35:01;;;;;;;5.00;2.10;;;;;;;18.16;100.00;100007.22;4984375;28;20213;-68
2023/07/30 02:37:27;;;;;;;2.47;1.83;;;;;;;18.13;100.00;100009.09;4981332;28;20213;-68
2023/07/30 02:39:54;;;;;;;2.07;1.77;;;;;;;18.08;100.00;99998.50;4985441;28;20233;-68
2023/07/30 02:42:20;;;;;;;2.80;2.10;;;;;;;18.04;100.00;100010.22;4987195;28;20200;-68
2023/07/30 02:44:46;;;;;;;2.03;1.70;;;;;;;17.99;100.00;100008.53;4981473;28;20228;-68
2023/07/30 02:47:13;;;;;;;3.90;2.10;;;;;;;18.02;100.00;100013.84;4985663;28;20227;-68
2023/07/30 02:49:39;;;;;;;4.03;1.87;;;;;;;17.96;100.00;100013.94;4980285;28;20228;-68
2023/07/30 02:52:06;;;;;;;2.63;2.13;;;;;;;17.92;100.00;100006.91;4984292;28;20205;-68
2023/07/30 02:54:32;;;;;;;2.40;2.00;;;;;;;17.92;100.00;100006.91;4980706;28;20573;-68
2023/07/30 02:56:59;;;;;;;3.33;1.93;;;;;;;17.93;100.00;100009.53;4981261;28;20232;-69
2023/07/30 02:59:25;;;;;;;2.67;2.17;;;;;;;17.89;100.00;100009.66;4988472;28;20223;-69
2023/07/30 03:01:51;;;;;;;2.77;2.13;;;;;;;17.83;100.00;100008.88;4984581;28;20688;-69
2023/07/30 03:04:18;;;;;;;3.63;2.20;;;;;;;17.81;100.00;100012.50;4980065;28;20304;-68
2023/07/30 03:06:44;;;;;;;2.70;2.03;;;;;;;17.75;100.00;100010.84;4981970;28;20231;-68
2023/07/30 03:09:10;;;;;;;2.30;2.00;;;;;;;17.75;100.00;100013.53;4979833;28;20229;-69
2023/07/30 03:11:37;;;;;;;2.97;2.20;;;;;;;17.85;100.00;100016.88;4984189;28;20208;-69
2023/07/30 03:14:04;;;;;;;2.83;2.30;;;;;;;17.80;100.00;100024.13;4989408;28;20197;-68
2023/07/30 03:16:30;;;;;;;4.13;2.23;;;;;;;17.75;100.00;100029.59;4988164;28;20693;-68
2023/07/30 03:18:56;;;;;;;3.37;2.20;;;;;;;17.71;100.00;100025.22;4988099;28;20790;-68
2023/07/30 03:21:23;;;;;;;3.10;2.17;;;;;;;17.64;100.00;100023.56;4981860;28;20223;-69
2023/07/30 03:23:49;;;;;;;2.47;2.10;;;;;;;17.54;100.00;100012.16;4980833;28;20227;-68
2023/07/30 03:26:15;;;;;;;3.97;2.60;;;;;;;17.39;100.00;100020.50;4988023;28;20209;-69
2023/07/30 03:28:42;;;;;;;3.10;2.80;;;;;;;17.30;100.00;100017.13;4979032;28;20228;-69
2023/07/30 03:31:08;;;;;;;3.00;2.17;;;;;;;17.24;100.00;100018.16;4983302;28;20573;-68
2023/07/30 03:33:35;;;;;;;2.43;2.23;;;;;;;17.25;100.00;100016.34;4982035;28;20263;-69
2023/07/30 03:36:02;;;;;;;5.23;2.10;;;;;;;17.27;100.00;100012.72;4984833;28;20201;-68
2023/07/30 03:38:28;;;;;;;3.00;2.30;;;;;;;17.28;100.00;100011.81;4984932;28;20228;-69
2023/07/30 03:40:54;;;;;;;4.00;2.60;;;;;;;17.27;100.00;100020.75;4989083;28;20197;-69
2023/07/30 03:43:21;;;;;;;2.20;2.00;;;;;;;17.23;100.00;100019.94;4986997;28;20201;-69
2023/07/30 03:45:48;;;;;;;2.73;2.23;;;;;;;17.17;100.00;100014.69;4990020;28;20259;-69
2023/07/30 03:48:15;;;;;;;2.30;1.90;;;;;;;17.17;100.00;100019.16;4990141;28;20716;-69
2023/07/30 03:50:41;;;;;;;2.63;2.20;;;;;;;17.12;100.00;100018.38;4991637;28;20228;-69
2023/07/30 03:53:07;;;;;;;2.80;2.50;;;;;;;17.04;100.00;100017.63;4987289;28;20292;-69
2023/07/30 03:55:34;;;;;;;4.00;2.30;;;;;;;16.94;100.00;100021.41;4989510;28;20220;-69
2023/07/30 03:58:00;;;;;;;2.80;2.20;;;;;;;16.84;100.00;100020.69;4989741;28;20232;-69
2023/07/30 04:00:28;;;;;;;2.30;1.93;;;;;;;16.76;100.00;100027.94;4989984;28;20680;-69
2023/07/30 04:02:54;;;;;;;2.53;2.20;;;;;;;16.68;100.00;100029.88;4988999;28;20205;-69
2023/07/30 04:05:21;;;;;;;2.83;2.40;;;;;;;16.65;100.00;100030.78;4989193;28;20287;-69
2023/07/30 04:07:47;;;;;;;5.10;2.50;;;;;;;16.66;100.00;100040.59;4988156;28;20746;-69
2023/07/30 04:10:14;;;;;;;2.63;2.20;;;;;;;16.66;100.00;100037.03;4977182;28;20209;-69
2023/07/30 04:12:40;;;;;;;4.33;2.50;;;;;;;16.63;100.00;100043.28;4976923;28;21405;-69
2023/07/30 04:15:07;;;;;;;3.33;2.47;;;;;;;16.62;100.00;100041.53;4981121;28;20197;-69
2023/07/30 04:17:37;;;;;;;4.00;2.47;;;;;;;16.78;100.00;100042.16;4978348;28;20205;-69
2023/07/30 04:20:04;;;;;;;3.00;2.70;;;;;;;16.83;100.00;100037.66;4982447;28;20259;-69
2023/07/30 04:22:31;;;;;;;5.30;2.73;;;;;;;16.89;100.00;100046.44;4980342;28;20695;-69
2023/07/30 04:24:57;;;;;;;3.67;2.67;;;;;;;16.86;100.00;100045.63;4981061;28;20712;-69
2023/07/30 04:27:23;;;;;;;4.00;2.60;;;;;;;16.85;100.00;100042.06;4979476;28;20211;-69
2023/07/30 04:29:52;;;;;;;2.80;2.30;;;;;;;16.79;100.00;100039.47;4985621;28;20217;-69
2023/07/30 04:32:19;;;;;;;4.73;2.60;;;;;;;16.76;100.00;100049.34;4974033;28;20683;-69
2023/07/30 04:34:45;;;;;;;2.97;2.37;;;;;;;16.73;100.00;100052.06;4980430;28;20677;-69
2023/07/30 04:37:11;;;;;;;4.13;2.50;;;;;;;16.72;100.00;100056.53;4983827;28;20196;-69
2023/07/30 04:39:38;;;;;;;2.87;2.57;;;;;;;16.70;100.00;100047.66;4974399;28;20534;-69
2023/07/30 04:42:04;;;;;;;3.43;2.70;;;;;;;16.70;100.00;100052.13;4981020;28;20307;-69
2023/07/30 04:44:31;;;;;;;3.37;2.50;;;;;;;16.69;100.00;100055.69;4983495;28;20224;-69
2023/07/30 04:46:57;;;;;;;2.60;2.40;;;;;;;16.74;100.00;100052.03;4991330;28;20582;-69
2023/07/30 04:49:24;;;;;;;5.30;2.83;;;;;;;16.79;100.00;100055.50;4986136;28;20248;-69
2023/07/30 04:51:50;;;;;;;4.93;2.90;;;;;;;16.87;100.00;100053.63;4987813;28;20197;-69
2023/07/30 04:54:16;;;;;;;4.23;2.53;;;;;;;16.96;100.00;100049.88;4987457;28;20619;-69
2023/07/30 04:56:43;;;;;;;4.40;2.53;;;;;;;17.02;100.00;100054.22;4986343;28;20200;-69
2023/07/30 04:59:09;;;;;;;3.50;2.37;;;;;;;17.08;100.00;100046.09;4989075;28;20248;-69
2023/07/30 05:01:36;;;;;;;2.70;2.10;;;;;;;17.14;100.00;100056.69;4988101;28;20236;-69
2023/07/30 05:04:03;;;;;;;2.13;1.80;;;;;;;17.24;100.00;100052.94;4990325;28;20283;-69
2023/07/30 05:06:29;;;;;;;3.00;1.83;;;;;;;17.28;100.00;100049.28;4985109;28;20208;-69
2023/07/30 05:08:56;;;;;;;4.23;2.10;;;;;;;17.37;100.00;100061.59;4982003;28;20224;-69
2023/07/30 05:11:22;;;;;;;2.90;2.20;;;;;;;17.48;100.00;100059.59;4989480;28;20696;-69
2023/07/30 05:13:49;;;;;;;2.90;1.90;;;;;;;17.64;100.00;100052.16;4989402;28;20668;-69
2023/07/30 05:16:15;;;;;;;3.93;2.00;;;;;;;17.80;100.00;100041.09;4988246;28;20255;-69
2023/07/30 05:18:42;;;;;;;2.27;1.77;;;;;;;17.89;100.00;100045.38;4981355;28;20217;-69
2023/07/30 05:21:11;;;;;;;2.53;1.80;;;;;;;17.94;100.00;100045.25;4987281;28;20275;-69
2023/07/30 05:23:37;;;;;;;2.47;2.10;;;;;;;18.00;100.00;100048.69;4988025;28;20664;-69
2023/07/30 05:26:03;;;;;;;3.37;2.20;;;;;;;18.28;100.00;100045.38;4992135;28;20312;-69
2023/07/30 05:28:30;;;;;;;3.53;2.20;;;;;;;18.45;100.00;100051.25;4991481;28;20274;-69
2023/07/30 05:30:56;;;;;;;2.25;1.70;;;;;;;18.58;100.00;100039.28;4989581;28;20519;-69
2023/07/30 05:33:23;;;;;;;2.20;1.70;;;;;;;18.69;100.00;100047.97;4987328;28;20212;-69
2023/07/30 05:35:49;;;;;;;2.63;1.80;;;;;;;18.76;100.00;100049.56;4987016;28;20200;-69
2023/07/30 05:38:15;;;;;;;3.17;1.70;;;;;;;18.91;100.00;100051.00;4991616;28;20220;-69
2023/07/30 05:40:42;;;;;;;3.15;1.90;;;;;;;19.06;100.00;100055.94;4987141;28;20209;-69
2023/07/30 05:43:08;;;;;;;4.07;1.80;;;;;;;19.15;100.00;100062.88;4989315;28;20209;-69
2023/07/30 05:45:35;;;;;;;3.38;1.77;;;;;;;19.26;100.00;100059.91;4982528;28;20606;-69
2023/07/30 05:48:01;;;;;;;2.88;1.77;;;;;;;19.34;100.00;100047.16;4990293;28;20283;-69
2023/07/30 05:50:28;;;;;;;2.60;1.40;;;;;;;19.46;100.00;100044.13;4989268;28;20696;-69
2023/07/30 05:52:54;;;;;;;4.35;1.70;;;;;;;19.49;100.00;100035.97;4988131;28;20306;-69
2023/07/30 05:55:21;;;;;;;3.80;1.60;;;;;;;19.65;100.00;100025.72;4986848;28;20208;-69
2023/07/30 05:57:47;;;;;;;2.25;1.70;;;;;;;19.84;100.00;100028.72;4988208;28;20692;-69
2023/07/30 06:00:14;;;;;;;2.63;1.60;;;;;;;20.03;100.00;100035.31;4985604;28;20718;-69
2023/07/30 06:02:40;;;;;;;3.78;1.75;;;;;;;20.19;100.00;100043.75;4987591;28;20212;-69
2023/07/30 06:05:07;;;;;;;5.00;1.50;;;;;;;20.45;100.00;100049.25;4988386;28;20268;-69
2023/07/30 06:07:33;;;;;;;1.83;1.63;;;;;;;20.83;100.00;100050.66;4987422;28;20213;-69
2023/07/30 06:10:00;;;;;;;2.63;1.70;;;;;;;21.06;100.00;100063.31;4989470;28;20209;-69
2023/07/30 06:12:26;;;;;;;3.38;1.77;;;;;;;21.12;100.00;100059.53;4984185;28;20244;-69
2023/07/30 06:14:52;;;;;;;3.95;1.83;;;;;;;20.98;100.00;100069.91;4988251;28;20205;-69
2023/07/30 06:17:19;;;;;;;2.38;1.38;;;;;;;20.89;100.00;100063.91;4988162;28;20205;-69
2023/07/30 06:19:45;;;;;;;2.30;1.75;;;;;;;20.90;100.00;100079.13;4987430;28;20291;-69
2023/07/30 06:22:12;;;;;;;3.35;1.67;;;;;;;20.56;100.00;100082.03;4986549;28;20557;-69
2023/07/30 06:24:38;;;;;;;7.07;2.67;;;;;;;20.40;100.00;100082.56;4986909;28;20217;-69
2023/07/30 06:27:05;;;;;;;2.88;1.83;;;;;;;20.30;100.00;100088.22;4987124;28;20209;-69
2023/07/30 06:29:31;;;;;;;1.60;1.50;;;;;;;20.31;100.00;100076.53;4985846;28;20217;-69
2023/07/30 06:31:58;;;;;;;1.70;1.33;;;;;;;20.39;100.00;100078.09;4989931;28;20211;-69
2023/07/30 06:34:24;;;;;;;2.70;2.13;;;;;;;20.44;100.00;100079.75;4995050;28;20269;-69
2023/07/30 06:36:50;;;;;;;3.58;1.40;;;;;;;20.46;100.00;100077.91;4987514;28;20213;-69
2023/07/30 06:39:17;;;;;;;3.05;1.60;;;;;;;20.49;100.00;100080.50;4991208;28;20724;-69
2023/07/30 06:41:43;;;;;;;1.98;1.73;;;;;;;20.43;100.00;100083.38;4993472;28;20714;-69
2023/07/30 06:44:10;;;;;;;3.22;1.80;;;;;;;20.53;100.00;100086.66;4990475;28;20292;-69
2023/07/30 06:46:36;;;;;;;3.00;1.65;;;;;;;20.67;100.00;100088.88;4990218;28;20295;-69
2023/07/30 06:49:03;;;;;;;3.88;1.60;;;;;;;20.81;100.00;100089.28;4985894;28;20225;-69
2023/07/30 06:51:30;;;;;;;2.67;1.90;;;;;;;20.91;100.00;100104.22;4987380;28;20209;-69
2023/07/30 06:53:57;;;;;;;3.63;1.75;;;;;;;20.86;100.00;100106.22;4989169;28;20577;-69
2023/07/30 06:56:23;;;;;;;5.03;1.80;;;;;;;20.85;100.00;100110.72;4989089;28;20201;-69
2023/07/30 06:58:50;;;;;;;2.00;1.67;;;;;;;20.77;100.00;100115.44;4983992;28;20223;-69
2023/07/30 07:01:16;;;;;;;1.80;1.42;;;;;;;20.63;100.00;100110.50;4989034;28;20209;-68
2023/07/30 07:03:42;;;;;;;2.42;1.65;;;;;;;20.55;100.00;100119.78;4986850;28;20197;-69
2023/07/30 07:06:09;;;;;;;4.32;1.80;;;;;;;20.56;100.00;100114.34;4991477;28;20217;-69
2023/07/30 07:08:36;;;;;;;1.90;1.70;;;;;;;20.67;100.00;100119.38;4986683;28;20233;-69
2023/07/30 07:11:02;;;;;;;4.35;1.83;;;;;;;20.64;100.00;100114.97;4985299;28;20207;-69
2023/07/30 07:13:29;;;;;;;2.22;1.77;;;;;;;20.69;100.00;100108.56;4989006;28;20216;-69
2023/07/30 07:15:55;;;;;;;1.95;1.85;;;;;;;20.70;100.00;100103.13;4987309;28;20661;-69
2023/07/30 07:18:21;;;;;;;2.70;1.67;;;;;;;20.80;100.00;100104.56;4989863;28;20225;-68
2023/07/30 07:20:48;;;;;;;2.63;1.58;;;;;;;20.99;100.00;100112.03;4987557;28;20216;-68
2023/07/30 07:23:14;;;;;;;2.15;1.90;;;;;;;21.15;100.00;100105.19;4989030;28;20254;-69
2023/07/30 07:25:41;;;;;;;2.75;1.90;;;;;;;21.31;100.00;100106.47;4990573;28;20222;-69
2023/07/30 07:28:07;;;;;;;3.72;1.95;;;;;;;21.83;100.00;100101.88;4987084;28;20221;-69
2023/07/30 07:30:35;;;;;;;2.30;1.75;;;;;;;22.22;100.00;100096.81;4988666;28;20268;-69
2023/07/30 07:33:02;;;;;;;2.33;2.03;;;;;;;22.52;100.00;100100.13;4987951;28;20208;-69
2023/07/30 07:35:29;;;;;;;2.67;1.90;;;;;;;22.52;100.00;100097.44;4988721;28;20699;-68
2023/07/30 07:37:56;;;;;;;2.45;1.67;;;;;;;22.37;100.00;100098.03;4986681;28;20223;-68
2023/07/30 07:40:22;;;;;;;4.05;2.10;;;;;;;22.46;100.00;100084.19;4987738;28;20213;-68
2023/07/30 07:42:49;;;;;;;2.17;1.67;;;;;;;22.85;100.00;100092.53;4988014;28;20201;-68
2023/07/30 07:45:15;;;;;;;2.13;1.90;;;;;;;23.31;100.00;100098.66;4987617;28;20300;-68
2023/07/30 07:47:41;;;;;;;4.95;1.60;;;;;;;23.41;100.00;100097.31;4988047;28;20309;-68
2023/07/30 07:50:08;;;;;;;2.03;1.83;;;;;;;22.93;100.00;100103.00;4986482;28;20267;-68
2023/07/30 07:52:35;;;;;;;2.42;2.08;;;;;;;22.63;100.00;100094.28;4987398;28;20201;-68
2023/07/30 07:55:01;;;;;;;3.00;1.77;;;;;;;22.51;100.00;100101.09;4987630;28;20201;-68
2023/07/30 07:57:29;;;;;;;2.88;2.10;;;;;;;22.79;100.00;100095.41;4986691;28;20711;-68
2023/07/30 07:59:56;;;;;;;2.15;1.95;;;;;;;23.64;100.00;100088.22;4988278;28;20744;-68
2023/07/30 08:02:24;;;;;;;2.90;2.05;;;;;;;25.14;100.00;100093.63;4990266;28;20216;-68
2023/07/30 08:04:50;;;;;;;2.33;1.90;;;;;;;25.92;100.00;100087.69;4985364;28;20203;-68
2023/07/30 08:07:17;;;;;;;3.65;1.70;;;;;;;26.48;93.33;100089.13;4985317;28;20555;-68
2023/07/30 08:09:43;;;;;;;3.95;2.10;;;;;;;27.03;83.95;100085.94;4988417;28;20669;-68
2023/07/30 08:12:10;;;;;;;4.40;2.00;;;;;;;26.47;74.00;100087.38;4989091;28;20215;-68
2023/07/30 08:14:36;;;;;;;3.13;1.92;;;;;;;25.14;78.91;100082.78;4989223;28;20598;-68
2023/07/30 08:17:03;;;;;;;2.03;1.83;;;;;;;24.66;83.41;100083.38;4984672;28;20197;-68
2023/07/30 08:19:29;;;;;;;4.80;2.20;;;;;;;24.25;87.84;100075.41;4989142;28;20724;-68
2023/07/30 08:21:58;;;;;;;3.42;2.17;;;;;;;24.00;88.84;100069.41;4992141;28;20680;-68
2023/07/30 08:24:25;;;;;;;2.42;1.75;;;;;;;23.89;97.30;100078.03;4992419;28;20205;-68
2023/07/30 08:26:51;;;;;;;6.70;2.03;;;;;;;23.84;96.54;100063.84;4963600;28;20422;-68
2023/07/30 08:29:18;;;;;;;2.30;1.85;;;;;;;23.68;100.00;100063.69;4982307;28;20636;-69
2023/07/30 08:31:44;;;;;;;2.10;1.80;;;;;;;23.63;100.00;100065.72;4988260;28;20752;-68
2023/07/30 08:34:10;;;;;;;3.33;2.10;;;;;;;23.48;100.00;100062.78;4990074;28;20628;-69
2023/07/30 08:36:37;;;;;;;3.15;2.03;;;;;;;23.26;100.00;100065.56;4987870;28;20201;-69
2023/07/30 08:39:04;;;;;;;2.63;2.00;;;;;;;23.19;100.00;100062.22;4986870;28;20306;-69
2023/07/30 08:41:31;;;;;;;3.70;1.90;;;;;;;23.29;100.00;100055.50;4989156;28;20263;-69
2023/07/30 08:43:58;;;;;;;5.55;2.05;;;;;;;23.39;100.00;100054.13;4989040;28;20732;-69
2023/07/30 08:46:24;;;;;;;3.15;2.30;;;;;;;23.39;100.00;100053.25;4993444;28;20310;-68
2023/07/30 08:48:51;;;;;;;3.05;2.10;;;;;;;23.21;100.00;100045.94;4985101;28;20249;-68
2023/07/30 08:51:18;;;;;;;3.08;2.30;;;;;;;23.07;100.00;100052.84;4983981;28;20201;-68
2023/07/30 08:53:46;;;;;;;3.85;2.33;;;;;;;22.84;100.00;100044.84;4987962;28;20307;-68
2023/07/30 08:56:12;;;;;;;4.63;2.30;;;;;;;22.55;100.00;100046.03;4984262;28;20197;-69
2023/07/30 08:58:40;;;;;;;3.42;2.25;;;;;;;22.46;100.00;100050.00;4985794;28;20463;-70
2023/07/30 09:01:10;;;;;;;3.10;2.47;;;;;;;21.89;100.00;100045.03;4983030;28;20582;-68
2023/07/30 09:03:39;;;;;;;3.83;2.97;;;;;;;21.27;100.00;100085.97;4985713;28;20560;-68
2023/07/30 09:06:06;;;;;;;8.35;3.05;;;;;;;20.56;100.00;100073.09;4985459;28;20229;-68
2023/07/30 09:08:33;;;;;;;3.20;2.10;;;;;;;19.83;100.00;100056.53;4988665;28;20455;-67
2023/07/30 09:11:10;;;;;;;2.25;1.40;;;;;;;19.29;100.00;100059.84;4984859;28;20196;-68
2023/07/30 09:13:38;;;;;;;1.33;1.23;;;;;;;18.78;100.00;100068.31;4989635;28;20196;-68
2023/07/30 09:16:12;;;;;;;6.70;1.57;;;;;;;18.62;100.00;100093.75;4987623;28;21036;-68
2023/07/30 09:18:45;;;;;;;1.13;1.00;;;;;;;18.65;100.00;100083.84;4982397;28;20224;-69
2023/07/30 09:21:13;;;;;;;1.53;1.10;;;;;;;18.87;100.00;100112.84;4986709;28;20295;-69
2023/07/30 09:23:44;;;;;;;1.30;1.03;;;;;;;19.07;100.00;100124.81;4983115;28;20963;-69
2023/07/30 09:26:11;;;;;;;1.67;0.93;;;;;;;19.08;100.00;100147.19;4984950;28;20629;-69
2023/07/30 09:28:39;;;;;;;4.37;0.77;;;;;;;19.23;100.00;100141.44;4983677;28;20216;-69
2023/07/30 09:31:08;;;;;;;1.47;1.00;;;;;;;19.58;100.00;100143.19;4984503;28;20196;-69
2023/07/30 09:33:47;;;;;;;1.23;0.68;;;;;;;20.06;100.00;100158.88;4983274;28;20307;-68
2023/07/30 09:36:15;;;;;;;0.50;0.50;;;;;;;20.57;100.00;100151.06;4987337;28;20267;-69
2023/07/30 09:38:42;;;;;;;0.70;0.52;;;;;;;20.76;100.00;100161.25;4987616;28;20233;-69
2023/07/30 09:41:13;;;;;;;2.60;0.43;;;;;;;20.86;100.00;100166.31;4981891;28;20208;-69
2023/07/30 09:43:41;;;;;;;0.55;0.45;;;;;;;20.82;100.00;100177.22;4983346;28;20209;-69
2023/07/30 09:46:07;;;;;;;2.25;0.70;;;;;;;21.27;100.00;100180.25;4988519;28;20664;-69
2023/07/30 09:48:34;;;;;;;0.50;0.50;;;;;;;21.47;100.00;100193.03;5010464;23;20238;-70
2023/07/30 09:51:05;;;;;;;0.73;0.57;;;;;;;21.57;100.00;100194.47;4981844;28;20688;-69
2023/07/30 09:53:36;;;;;;;0.80;0.60;;;;;;;21.80;100.00;100197.25;4986083;28;20695;-70
2023/07/30 09:56:04;;;;;;;1.00;0.70;;;;;;;22.18;100.00;100200.41;4970261;28;20685;-69
2023/07/30 09:58:30;;;;;;;1.23;0.68;;;;;;;21.92;100.00;100203.13;4989740;28;20224;-69
2023/07/30 10:01:01;;;;;;;0.93;0.80;;;;;;;21.50;100.00;100214.47;5005713;28;21508;-71
2023/07/30 10:03:28;;;;;;;1.67;0.73;;;;;;;21.78;100.00;100207.19;5011657;28;20893;-69
2023/07/30 10:06:08;;;;;;;1.65;0.80;;;;;;;21.66;100.00;100223.81;5003642;28;20309;-71
2023/07/30 10:08:39;;;;;;;2.90;0.85;;;;;;;22.11;100.00;100228.53;5004025;28;20224;-69
2023/07/30 10:11:08;;;;;;;1.77;0.63;;;;;;;21.81;100.00;100217.00;5008512;28;20295;-69
2023/07/30 10:13:36;;;;;;;1.33;0.90;;;;;;;22.26;100.00;100216.28;4992559;28;20262;-70
2023/07/30 10:16:02;;;;;;;2.80;0.90;;;;;;;22.45;100.00;100215.56;5008622;28;20314;-69
2023/07/30 10:18:43;;;;;;;1.33;0.90;;;;;;;23.39;100.00;100219.00;5022269;28;20290;-71
2023/07/30 10:21:10;;;;;;;2.58;0.80;;;;;;;22.90;100.00;100211.16;5007152;28;20209;-70
2023/07/30 10:23:46;;;;;;;1.40;0.77;;;;;;;22.39;100.00;100221.16;5009805;28;20290;-69
2023/07/30 10:26:12;;;;;;;1.63;1.10;;;;;;;22.42;100.00;100234.56;5009264;28;20751;-70
2023/07/30 10:28:43;;;;;;;2.70;1.02;;;;;;;22.15;100.00;100240.97;5010457;28;20224;-69
2023/07/30 10:31:11;;;;;;;2.10;0.90;;;;;;;22.27;100.00;100232.44;5005601;28;20644;-69
2023/07/30 10:33:45;;;;;;;3.03;1.02;;;;;;;22.20;100.00;100239.88;5014377;28;20207;-69
2023/07/30 10:36:11;;;;;;;2.90;1.33;;;;;;;22.02;99.91;100235.13;5004225;28;20200;-68
2023/07/30 10:38:39;;;;;;;5.13;1.23;;;;;;;21.92;92.66;100248.97;5012561;28;20607;-69
2023/07/30 10:41:12;;;;;;;3.85;1.33;;;;;;;22.22;92.07;100253.31;5010532;28;20712;-69
2023/07/30 10:43:39;;;;;;;2.85;1.02;;;;;;;22.10;93.00;100261.84;5006607;28;20585;-70
2023/07/30 10:46:06;;;;;;;2.45;1.27;;;;;;;22.40;92.59;100258.00;5012952;28;20622;-68
2023/07/30 10:48:35;;;;;;;2.47;1.50;;;;;;;22.70;75.40;100255.09;5015478;28;20314;-69
2023/07/30 10:51:08;;;;;;;3.90;1.30;;;;;;;22.43;72.57;100259.75;5009696;28;20218;-69
2023/07/30 10:53:39;;;;;;;4.22;1.45;;;;;;;22.15;75.48;100257.16;5006196;28;20291;-67
2023/07/30 10:56:06;;;;;;;3.13;1.40;;;;;;;22.75;74.23;100266.59;5016404;28;20290;-69
2023/07/30 10:58:34;;;;;;;4.45;1.77;;;;;;;23.11;68.46;100258.91;4996133;28;20727;-69
2023/07/30 11:01:03;;;;;;;3.17;1.60;;;;;;;23.19;68.41;100258.59;5007378;28;20227;-69
2023/07/30 11:03:31;;;;;;;3.72;1.60;;;;;;;23.05;68.10;100259.16;5011531;28;20227;-70
2023/07/30 11:05:59;;;;;;;4.18;1.40;;;;;;;22.16;66.82;100267.03;5009684;28;20226;-70
2023/07/30 11:08:33;;;;;;;2.05;1.20;;;;;;;21.82;66.00;100262.78;5007340;28;20224;-69
2023/07/30 11:11:00;;;;;;;3.90;1.63;;;;;;;21.98;68.11;100273.91;5008399;28;20625;-70
2023/07/30 11:13:27;;;;;;;4.38;1.50;;;;;;;21.82;65.96;100273.56;5013199;28;20215;-69
2023/07/30 11:15:53;;;;;;;4.78;1.30;;;;;;;22.33;65.68;100279.88;5007118;28;20692;-69
2023/07/30 11:18:20;;;;;;;3.42;1.48;;;;;;;21.61;65.70;100289.56;5003097;28;20235;-69